Time;durP1;ratioP1;P1;durP2;ratioP2;P2;SDS_P1;SDS_P2;PMS_P1;PMS_P2;Temp;Humidity;BMP_temperature;BMP_pressure;BME280_temperature;BME280_humidity;BME280_pressure;Samples;Min_cycle;Max_cycle;Signal;HPM_P1;HPM_P2
2022/11/16 00:01:15;;;;;;;4.38;1.30;;;;;;;;;;5029617;28;20025;-72
2022/11/16 00:03:41;;;;;;;4.82;1.30;;;;;;;;;;5029261;28;20029;-73
2022/11/16 00:06:08;;;;;;;3.78;1.40;;;;;;;;;;5029385;28;20048;-72
2022/11/16 00:08:44;;;;;;;4.55;1.50;;;;;;;;;;5029252;28;20032;-73
2022/11/16 00:11:15;;;;;;;4.07;1.30;;;;;;;;;;5029241;28;20090;-73
2022/11/16 00:13:42;;;;;;;5.55;1.60;;;;;;;;;;5028768;28;20037;-73
2022/11/16 00:16:14;;;;;;;7.75;1.45;;;;;;;;;;5029304;28;20022;-72
2022/11/16 00:18:43;;;;;;;5.93;1.45;;;;;;;;;;5011527;28;20040;-73
2022/11/16 00:21:09;;;;;;;4.20;1.20;;;;;;;;;;5029432;28;20688;-72
2022/11/16 00:23:37;;;;;;;4.43;1.60;;;;;;;;;;5028974;28;20147;-72
2022/11/16 00:26:07;;;;;;;4.95;1.50;;;;;;;;;;5029472;28;20022;-72
2022/11/16 00:28:33;;;;;;;3.45;1.35;;;;;;;;;;5028504;28;20497;-72
2022/11/16 00:31:04;;;;;;;3.05;1.38;;;;;;;;;;5011391;28;20176;-72
2022/11/16 00:33:29;;;;;;;5.10;1.50;;;;;;;;;;5028810;28;20057;-72
2022/11/16 00:35:55;;;;;;;5.00;1.42;;;;;;;;;;5029276;28;20605;-73
2022/11/16 00:38:21;;;;;;;3.00;1.30;;;;;;;;;;5028934;28;20024;-72
2022/11/16 00:40:46;;;;;;;5.70;1.48;;;;;;;;;;5029386;28;20022;-73
2022/11/16 00:43:12;;;;;;;4.97;1.50;;;;;;;;;;5028690;28;20499;-72
2022/11/16 00:45:39;;;;;;;3.80;1.40;;;;;;;;;;5029223;28;20037;-73
2022/11/16 00:48:05;;;;;;;5.80;1.33;;;;;;;;;;5028686;28;20029;-72
2022/11/16 00:50:30;;;;;;;5.43;1.42;;;;;;;;;;5029098;28;20526;-72
2022/11/16 00:52:56;;;;;;;3.30;1.35;;;;;;;;;;5031785;28;20030;-73
2022/11/16 00:55:21;;;;;;;6.85;1.45;;;;;;;;;;5032980;28;20018;-73
2022/11/16 00:57:47;;;;;;;3.63;1.20;;;;;;;;;;5032439;28;20033;-72
2022/11/16 01:00:13;;;;;;;3.45;1.35;;;;;;;;;;5032805;28;20057;-72
2022/11/16 01:02:39;;;;;;;5.40;1.55;;;;;;;;;;5032732;28;20035;-72
2022/11/16 01:05:06;;;;;;;6.63;1.45;;;;;;;;;;5032437;28;20042;-72
2022/11/16 01:07:34;;;;;;;4.82;1.67;;;;;;;;;;5032645;28;20565;-72
2022/11/16 01:09:59;;;;;;;4.50;1.30;;;;;;;;;;5032382;28;20021;-72
2022/11/16 01:12:25;;;;;;;2.53;1.20;;;;;;;;;;5031925;28;20034;-72
2022/11/16 01:14:50;;;;;;;3.35;1.30;;;;;;;;;;5032480;28;20522;-72
2022/11/16 01:17:16;;;;;;;5.80;1.42;;;;;;;;;;5032673;28;20029;-72
2022/11/16 01:19:41;;;;;;;6.22;1.38;;;;;;;;;;5032445;28;20052;-72
2022/11/16 01:22:06;;;;;;;4.63;1.42;;;;;;;;;;5032470;28;20021;-72
2022/11/16 01:24:32;;;;;;;4.68;1.20;;;;;;;;;;5032085;28;20057;-72
2022/11/16 01:26:58;;;;;;;3.35;1.17;;;;;;;;;;5032060;28;20029;-72
2022/11/16 01:29:25;;;;;;;2.95;1.15;;;;;;;;;;5032176;28;20080;-72
2022/11/16 01:31:50;;;;;;;3.45;1.40;;;;;;;;;;5014560;28;20393;-72
2022/11/16 01:34:16;;;;;;;2.95;1.20;;;;;;;;;;5031806;28;20474;-72
2022/11/16 01:36:41;;;;;;;3.45;1.27;;;;;;;;;;5032301;28;20021;-73
2022/11/16 01:39:07;;;;;;;2.45;1.13;;;;;;;;;;5031868;28;20030;-73
2022/11/16 01:41:33;;;;;;;3.63;1.48;;;;;;;;;;5032409;28;20017;-73
2022/11/16 01:44:04;;;;;;;3.03;1.20;;;;;;;;;;5031429;28;20534;-73
2022/11/16 01:46:30;;;;;;;3.33;1.15;;;;;;;;;;5032073;28;20030;-73
2022/11/16 01:49:05;;;;;;;5.25;1.35;;;;;;;;;;5031401;28;20026;-73
2022/11/16 01:51:32;;;;;;;3.65;1.30;;;;;;;;;;5014173;28;20062;-73
2022/11/16 01:54:00;;;;;;;2.55;0.95;;;;;;;;;;5031337;28;20022;-73
2022/11/16 01:56:26;;;;;;;3.90;1.10;;;;;;;;;;5031953;28;20025;-73
2022/11/16 01:58:52;;;;;;;3.80;1.08;;;;;;;;;;5031516;28;20108;-72
2022/11/16 02:01:17;;;;;;;3.88;1.13;;;;;;;;;;5031814;28;20052;-72
2022/11/16 02:03:43;;;;;;;5.97;1.10;;;;;;;;;;5030321;28;20049;-73
2022/11/16 02:06:31;;;;;;;4.18;0.93;;;;;;;;;;5031464;28;20112;-73
2022/11/16 02:09:53;;;;;;;3.50;1.17;;;;;;;;;;5031322;28;20512;-73
2022/11/16 02:12:21;;;;;;;5.15;1.10;;;;;;;;;;4950375;29;20031;-73
2022/11/16 02:15:37;;;;;;;3.97;1.33;;;;;;;;;;5004646;28;20099;-73
2022/11/16 02:18:40;;;;;;;3.47;1.00;;;;;;;;;;4997430;28;20044;-73
2022/11/16 02:21:48;;;;;;;3.92;1.02;;;;;;;;;;5031465;28;20037;-73
2022/11/16 02:24:22;;;;;;;4.80;1.10;;;;;;;;;;5013738;28;20063;-73
2022/11/16 02:27:09;;;;;;;4.18;0.90;;;;;;;;;;5031497;28;20030;-73
2022/11/16 02:29:55;;;;;;;3.75;1.10;;;;;;;;;;5031039;28;20119;-73
2022/11/16 02:32:32;;;;;;;3.95;1.20;;;;;;;;;;5031202;28;20056;-72
2022/11/16 02:35:00;;;;;;;6.18;0.90;;;;;;;;;;5030626;28;20175;-72
2022/11/16 02:37:30;;;;;;;5.30;1.13;;;;;;;;;;5031251;28;20473;-73
2022/11/16 02:39:59;;;;;;;4.18;1.08;;;;;;;;;;5030882;28;20032;-73
2022/11/16 02:42:33;;;;;;;3.90;1.10;;;;;;;;;;5030701;28;20077;-72
2022/11/16 02:45:01;;;;;;;2.90;1.08;;;;;;;;;;5030546;28;20500;-73
2022/11/16 02:47:30;;;;;;;4.68;1.08;;;;;;;;;;5030769;28;20112;-73
2022/11/16 02:50:04;;;;;;;3.88;1.05;;;;;;;;;;5030718;28;20056;-73
2022/11/16 02:52:29;;;;;;;2.75;1.00;;;;;;;;;;5030985;28;20032;-73
2022/11/16 02:54:55;;;;;;;5.65;1.48;;;;;;;;;;5030574;28;20030;-73
2022/11/16 02:57:50;;;;;;;4.57;1.40;;;;;;;;;;5030511;28;20041;-73
2022/11/16 03:00:22;;;;;;;2.97;1.02;;;;;;;;;;5030404;28;20025;-73
2022/11/16 03:03:00;;;;;;;5.10;1.60;;;;;;;;;;5030748;28;20074;-73
2022/11/16 03:05:52;;;;;;;5.53;1.23;;;;;;;;;;5030092;28;20041;-72
2022/11/16 03:08:33;;;;;;;4.28;1.13;;;;;;;;;;5030470;28;20109;-73
2022/11/16 03:13:51;;;;;;;2.43;1.00;;;;;;;;;;5030107;28;20400;-72
2022/11/16 03:16:22;;;;;;;5.05;1.20;;;;;;;;;;5029850;28;20268;-72
2022/11/16 03:18:50;;;;;;;5.03;1.10;;;;;;;;;;5030382;28;20048;-73
2022/11/16 03:21:26;;;;;;;4.53;1.20;;;;;;;;;;5030222;28;20462;-72
2022/11/16 03:23:51;;;;;;;5.38;1.67;;;;;;;;;;5030040;28;20492;-72
2022/11/16 03:26:21;;;;;;;7.43;1.35;;;;;;;;;;5030013;28;20021;-73
2022/11/16 03:28:57;;;;;;;4.97;1.10;;;;;;;;;;5029682;28;20037;-73
2022/11/16 03:31:30;;;;;;;3.38;1.20;;;;;;;;;;5012005;28;20033;-73
2022/11/16 03:33:59;;;;;;;2.63;1.30;;;;;;;;;;5029998;28;20124;-73
2022/11/16 03:36:29;;;;;;;4.53;1.27;;;;;;;;;;5029794;28;20085;-73
2022/11/16 03:39:00;;;;;;;2.25;1.13;;;;;;;;;;5030086;28;20763;-73
2022/11/16 03:41:27;;;;;;;3.60;1.10;;;;;;;;;;5029792;28;20120;-72
2022/11/16 03:43:54;;;;;;;6.10;1.20;;;;;;;;;;5029440;28;20048;-73
2022/11/16 03:46:20;;;;;;;4.60;1.27;;;;;;;;;;5029500;28;20108;-73
2022/11/16 03:48:45;;;;;;;7.82;1.48;;;;;;;;;;5029650;28;20113;-73
2022/11/16 03:51:11;;;;;;;6.97;1.40;;;;;;;;;;5029567;28;20128;-73
2022/11/16 03:53:36;;;;;;;4.35;1.23;;;;;;;;;;5029677;28;20091;-72
2022/11/16 03:56:02;;;;;;;4.50;1.15;;;;;;;;;;5029514;28;20079;-73
2022/11/16 03:58:28;;;;;;;5.10;1.23;;;;;;;;;;5029342;28;20026;-72
2022/11/16 04:00:53;;;;;;;4.60;1.27;;;;;;;;;;5029581;28;20033;-72
2022/11/16 04:03:19;;;;;;;4.53;1.45;;;;;;;;;;5011716;28;20474;-72
2022/11/16 04:25:24;;;;;;;6.67;1.27;;;;;;;;;;5029457;28;20639;-72
2022/11/16 04:38:45;;;;;;;3.40;0.98;;;;;;;;;;5036139;28;20116;-73
2022/11/16 04:43:56;;;;;;;3.70;1.15;;;;;;;;;;5035388;28;20426;-71
2022/11/16 04:49:05;;;;;;;6.53;1.20;;;;;;;;;;5035619;28;20559;-72
2022/11/16 04:51:31;;;;;;;3.60;1.00;;;;;;;;;;5035532;28;20021;-72
2022/11/16 04:53:56;;;;;;;4.90;1.27;;;;;;;;;;5035720;28;20026;-73
2022/11/16 04:56:21;;;;;;;4.82;1.45;;;;;;;;;;5035515;28;20032;-73
2022/11/16 04:58:47;;;;;;;6.18;1.25;;;;;;;;;;5035214;28;20029;-73
2022/11/16 05:01:12;;;;;;;3.75;1.05;;;;;;;;;;5035652;28;20025;-73
2022/11/16 05:03:37;;;;;;;4.53;1.40;;;;;;;;;;5035663;28;20378;-73
2022/11/16 05:06:03;;;;;;;7.30;1.50;;;;;;;;;;5035165;28;20049;-73
2022/11/16 05:08:28;;;;;;;4.25;1.20;;;;;;;;;;5035442;28;20033;-73
2022/11/16 05:10:54;;;;;;;4.65;1.17;;;;;;;;;;5035389;28;20021;-74
2022/11/16 05:13:19;;;;;;;5.88;1.52;;;;;;;;;;5034877;28;20393;-72
2022/11/16 05:15:45;;;;;;;5.38;1.30;;;;;;;;;;5035290;28;20056;-72
2022/11/16 05:18:10;;;;;;;6.07;1.30;;;;;;;;;;5035423;28;20026;-73
2022/11/16 05:26:03;;;;;;;4.30;1.30;;;;;;;;;;5034916;28;20036;-72
2022/11/16 05:28:29;;;;;;;3.88;1.25;;;;;;;;;;5034910;28;20405;-70
2022/11/16 05:30:54;;;;;;;5.60;1.40;;;;;;;;;;5035338;28;20037;-72
2022/11/16 05:33:20;;;;;;;6.00;1.27;;;;;;;;;;5035370;28;20021;-72
2022/11/16 05:35:49;;;;;;;6.18;1.30;;;;;;;;;;5035343;28;20029;-73
2022/11/16 05:38:14;;;;;;;4.65;1.48;;;;;;;;;;5033409;28;20488;-72
2022/11/16 05:40:40;;;;;;;5.00;1.50;;;;;;;;;;5014276;28;20095;-72
2022/11/16 05:43:05;;;;;;;5.30;1.20;;;;;;;;;;5031624;28;20055;-72
2022/11/16 05:45:30;;;;;;;6.10;1.50;;;;;;;;;;5031928;28;20071;-72
2022/11/16 05:47:56;;;;;;;5.38;1.30;;;;;;;;;;5031615;28;20120;-72
2022/11/16 05:50:21;;;;;;;5.05;1.35;;;;;;;;;;5014200;28;20029;-72
2022/11/16 05:52:46;;;;;;;4.05;1.30;;;;;;;;;;5031744;28;20021;-71
2022/11/16 05:55:12;;;;;;;3.75;1.23;;;;;;;;;;5014141;28;20041;-72
2022/11/16 05:57:37;;;;;;;3.78;1.50;;;;;;;;;;5031305;28;20541;-72
2022/11/16 06:00:06;;;;;;;6.38;1.65;;;;;;;;;;5014211;28;20021;-74
2022/11/16 06:02:32;;;;;;;6.13;1.67;;;;;;;;;;5031613;28;20057;-72
2022/11/16 06:04:57;;;;;;;4.25;1.45;;;;;;;;;;5031423;28;20038;-72
2022/11/16 06:07:23;;;;;;;2.80;1.30;;;;;;;;;;5013359;28;20029;-72
2022/11/16 06:09:48;;;;;;;5.15;1.60;;;;;;;;;;5031824;28;20036;-72
2022/11/16 06:12:14;;;;;;;3.85;1.40;;;;;;;;;;5031229;28;20025;-72
2022/11/16 06:14:39;;;;;;;6.03;1.50;;;;;;;;;;5031693;28;20070;-73
2022/11/16 06:17:04;;;;;;;5.25;1.77;;;;;;;;;;5031379;28;20024;-72
2022/11/16 06:19:30;;;;;;;4.55;1.55;;;;;;;;;;5031558;28;20377;-72
2022/11/16 06:21:55;;;;;;;5.18;1.40;;;;;;;;;;5031188;28;20100;-72
2022/11/16 06:24:21;;;;;;;7.55;1.80;;;;;;;;;;5013454;28;20083;-75
2022/11/16 06:26:46;;;;;;;8.77;2.03;;;;;;;;;;5030986;28;20028;-74
2022/11/16 06:29:12;;;;;;;7.35;1.90;;;;;;;;;;5030743;28;20030;-73
2022/11/16 06:31:37;;;;;;;7.53;1.45;;;;;;;;;;5031075;28;20107;-74
2022/11/16 06:34:03;;;;;;;4.90;1.60;;;;;;;;;;5031169;28;20060;-73
2022/11/16 06:36:28;;;;;;;5.82;1.80;;;;;;;;;;5030940;28;20021;-73
2022/11/16 06:38:54;;;;;;;5.28;1.95;;;;;;;;;;5030855;28;20030;-73
2022/11/16 06:41:19;;;;;;;5.18;1.85;;;;;;;;;;5031095;28;20052;-73
2022/11/16 06:43:45;;;;;;;7.13;2.00;;;;;;;;;;5030313;28;20030;-72
2022/11/16 06:46:10;;;;;;;7.07;1.80;;;;;;;;;;5030890;28;20028;-72
2022/11/16 06:48:36;;;;;;;4.70;1.80;;;;;;;;;;5030402;28;20053;-72
2022/11/16 06:51:01;;;;;;;7.60;2.22;;;;;;;;;;5030088;28;20021;-72
2022/11/16 06:53:27;;;;;;;6.55;1.70;;;;;;;;;;5030673;28;20104;-72
2022/11/16 06:55:52;;;;;;;5.45;1.73;;;;;;;;;;5030909;28;20022;-72
2022/11/16 06:58:17;;;;;;;9.10;2.08;;;;;;;;;;5030067;28;20082;-72
2022/11/16 07:00:43;;;;;;;5.68;1.80;;;;;;;;;;5030737;28;20104;-72
2022/11/16 07:03:09;;;;;;;8.13;1.70;;;;;;;;;;5030428;28;20030;-72
2022/11/16 07:05:38;;;;;;;7.47;1.98;;;;;;;;;;5030281;28;20073;-72
2022/11/16 07:08:03;;;;;;;5.80;1.80;;;;;;;;;;5030168;28;20457;-72
2022/11/16 07:10:28;;;;;;;6.20;2.05;;;;;;;;;;5030401;28;20067;-73
2022/11/16 07:12:54;;;;;;;7.43;2.28;;;;;;;;;;5029783;28;20029;-73
2022/11/16 07:15:19;;;;;;;6.72;2.10;;;;;;;;;;5030232;28;20040;-73
2022/11/16 07:17:45;;;;;;;7.82;2.42;;;;;;;;;;5030039;28;20036;-73
2022/11/16 07:20:10;;;;;;;7.20;2.10;;;;;;;;;;5030314;28;20025;-73
2022/11/16 07:22:36;;;;;;;6.57;2.05;;;;;;;;;;5029970;28;20033;-72
2022/11/16 07:25:01;;;;;;;6.60;1.70;;;;;;;;;;5029844;28;20040;-73
2022/11/16 07:27:27;;;;;;;6.15;1.80;;;;;;;;;;5029265;28;20022;-73
2022/11/16 07:29:52;;;;;;;5.20;1.73;;;;;;;;;;5030155;28;20166;-73
2022/11/16 07:32:17;;;;;;;5.55;1.88;;;;;;;;;;5029794;28;20033;-73
2022/11/16 07:34:43;;;;;;;4.55;1.85;;;;;;;;;;5029852;28;20025;-73
2022/11/16 07:37:08;;;;;;;6.03;1.90;;;;;;;;;;5030179;28;20113;-73
2022/11/16 07:39:34;;;;;;;5.10;1.85;;;;;;;;;;5029942;28;20108;-72
2022/11/16 07:41:59;;;;;;;9.75;2.10;;;;;;;;;;5029312;28;20022;-73
2022/11/16 07:44:24;;;;;;;4.03;1.90;;;;;;;;;;5029723;28;20470;-72
2022/11/16 07:46:50;;;;;;;8.50;2.28;;;;;;;;;;5029715;28;20036;-73
2022/11/16 07:49:17;;;;;;;7.63;2.05;;;;;;;;;;5029258;28;20047;-73
2022/11/16 07:51:43;;;;;;;5.15;2.10;;;;;;;;;;5029882;28;20022;-73
2022/11/16 07:54:14;;;;;;;8.85;2.17;;;;;;;;;;5029615;28;20030;-73
2022/11/16 07:56:40;;;;;;;7.30;2.05;;;;;;;;;;5029602;28;20029;-73
2022/11/16 07:59:06;;;;;;;8.13;2.40;;;;;;;;;;5029162;28;20013;-73
2022/11/16 08:01:32;;;;;;;9.85;2.53;;;;;;;;;;5028839;28;20628;-73
2022/11/16 08:03:57;;;;;;;9.02;2.20;;;;;;;;;;5029159;28;20033;-72
2022/11/16 08:06:25;;;;;;;5.47;1.77;;;;;;;;;;5029247;28;20073;-73
2022/11/16 08:08:50;;;;;;;6.03;2.00;;;;;;;;;;5011507;28;20033;-73
2022/11/16 08:11:16;;;;;;;5.38;2.03;;;;;;;;;;5029881;28;20025;-74
2022/11/16 08:13:41;;;;;;;5.82;1.50;;;;;;;;;;5028938;28;20723;-73
2022/11/16 08:16:12;;;;;;;6.38;2.10;;;;;;;;;;5029471;28;20060;-73
2022/11/16 08:18:39;;;;;;;4.45;1.50;;;;;;;;;;5029283;28;20083;-74
2022/11/16 08:21:06;;;;;;;8.40;1.77;;;;;;;;;;5029568;28;20028;-74
2022/11/16 08:23:32;;;;;;;4.03;1.58;;;;;;;;;;5029159;28;20057;-75
2022/11/16 08:25:59;;;;;;;6.70;1.80;;;;;;;;;;5028818;28;20056;-74
2022/11/16 08:28:26;;;;;;;4.85;1.65;;;;;;;;;;5028614;28;20551;-74
2022/11/16 08:30:51;;;;;;;6.53;1.70;;;;;;;;;;5029511;28;20029;-74
2022/11/16 08:33:18;;;;;;;7.97;1.80;;;;;;;;;;5028904;28;20098;-74
2022/11/16 08:35:43;;;;;;;7.50;1.92;;;;;;;;;;5029175;28;20026;-74
2022/11/16 08:38:09;;;;;;;6.97;1.90;;;;;;;;;;5029082;28;20033;-73
2022/11/16 08:40:36;;;;;;;5.40;1.70;;;;;;;;;;5028961;28;20021;-74
2022/11/16 08:43:01;;;;;;;5.07;1.42;;;;;;;;;;5028864;28;20501;-73
2022/11/16 08:45:27;;;;;;;13.52;2.10;;;;;;;;;;5028831;28;20018;-75
2022/11/16 08:47:52;;;;;;;4.90;1.45;;;;;;;;;;5029117;28;20037;-75
2022/11/16 08:50:17;;;;;;;4.20;1.23;;;;;;;;;;5011175;28;20113;-72
2022/11/16 08:52:43;;;;;;;4.32;1.35;;;;;;;;;;5029116;28;20063;-74
2022/11/16 08:55:09;;;;;;;9.63;1.48;;;;;;;;;;5028917;28;20079;-73
2022/11/16 08:57:34;;;;;;;5.10;1.48;;;;;;;;;;5028758;28;20108;-74
2022/11/16 09:00:00;;;;;;;10.27;1.38;;;;;;;;;;5028819;28;20037;-74
2022/11/16 09:02:25;;;;;;;6.30;1.50;;;;;;;;;;5029041;28;20021;-74
2022/11/16 09:04:51;;;;;;;4.43;1.40;;;;;;;;;;5028427;28;20355;-74
2022/11/16 09:07:17;;;;;;;5.97;1.60;;;;;;;;;;5028416;28;20472;-74
2022/11/16 09:09:42;;;;;;;9.55;1.63;;;;;;;;;;5028949;28;20034;-74
2022/11/16 09:12:08;;;;;;;6.07;1.60;;;;;;;;;;5028703;28;20053;-73
2022/11/16 09:14:33;;;;;;;4.72;1.58;;;;;;;;;;5032333;28;20539;-73
2022/11/16 09:16:59;;;;;;;9.13;1.95;;;;;;;;;;5032555;28;20029;-73
2022/11/16 09:19:24;;;;;;;11.18;2.05;;;;;;;;;;5032548;28;20036;-72
2022/11/16 09:21:50;;;;;;;7.78;1.67;;;;;;;;;;5032694;28;20030;-74
2022/11/16 09:24:15;;;;;;;5.78;1.70;;;;;;;;;;5032246;28;20075;-74
2022/11/16 09:26:41;;;;;;;6.93;1.40;;;;;;;;;;5032429;28;20029;-75
2022/11/16 09:29:11;;;;;;;6.00;1.85;;;;;;;;;;5031875;28;20083;-74
2022/11/16 09:31:36;;;;;;;5.83;1.60;;;;;;;;;;5015468;28;20033;-74
2022/11/16 09:34:02;;;;;;;7.85;1.50;;;;;;;;;;5032242;28;20330;-73
2022/11/16 09:36:28;;;;;;;7.13;1.55;;;;;;;;;;5032275;28;20492;-74
2022/11/16 09:38:54;;;;;;;4.82;1.38;;;;;;;;;;5032021;28;20034;-74
2022/11/16 09:41:39;;;;;;;4.10;1.48;;;;;;;;;;5032244;28;20020;-73
2022/11/16 09:44:19;;;;;;;4.45;1.50;;;;;;;;;;5031693;28;20041;-73
2022/11/16 09:46:48;;;;;;;10.10;1.60;;;;;;;;;;5032014;28;20030;-73
2022/11/16 09:49:23;;;;;;;8.20;1.90;;;;;;;;;;5014083;28;20065;-73
2022/11/16 09:51:52;;;;;;;6.00;1.70;;;;;;;;;;5032020;28;20079;-73
2022/11/16 09:54:23;;;;;;;7.63;1.85;;;;;;;;;;5031772;28;20489;-73
2022/11/16 09:56:52;;;;;;;5.93;1.60;;;;;;;;;;5031857;28;20017;-73
2022/11/16 09:59:24;;;;;;;3.85;1.23;;;;;;;;;;5031477;28;20082;-73
2022/11/16 10:02:22;;;;;;;6.47;1.77;;;;;;;;;;5031875;28;20017;-73
2022/11/16 10:05:07;;;;;;;6.57;1.60;;;;;;;;;;5031377;28;20018;-73
2022/11/16 10:07:37;;;;;;;6.47;1.50;;;;;;;;;;5031467;28;20117;-73
2022/11/16 10:10:03;;;;;;;;;;;;;;;;;;5032030;28;20033;-73
2022/11/16 10:12:34;;;;;;;4.93;1.17;;;;;;;;;;5031465;28;19936;-73
2022/11/16 10:15:33;;;;;;;8.00;1.20;;;;;;;;;;5031626;28;20044;-74
2022/11/16 10:18:07;;;;;;;6.03;1.50;;;;;;;;;;5031641;28;20029;-73
2022/11/16 10:20:50;;;;;;;4.65;1.20;;;;;;;;;;5031204;28;20033;-73
2022/11/16 10:23:29;;;;;;;5.72;1.45;;;;;;;;;;5031498;28;20029;-73
2022/11/16 10:26:21;;;;;;;4.68;1.25;;;;;;;;;;5030242;28;20022;-73
2022/11/16 10:28:49;;;;;;;5.72;1.30;;;;;;;;;;5000165;28;20037;-73
2022/11/16 10:31:39;;;;;;;7.90;1.58;;;;;;;;;;5030990;28;20484;-73
2022/11/16 10:34:07;;;;;;;7.00;1.45;;;;;;;;;;5031397;28;20052;-73
2022/11/16 10:36:36;;;;;;;7.28;1.60;;;;;;;;;;5030844;28;20025;-73
2022/11/16 10:39:11;;;;;;;7.28;1.50;;;;;;;;;;5031246;28;20052;-73
2022/11/16 10:41:43;;;;;;;5.97;1.48;;;;;;;;;;5030640;28;20025;-72
2022/11/16 10:44:24;;;;;;;7.63;1.50;;;;;;;;;;5012875;28;20029;-73
2022/11/16 10:47:00;;;;;;;7.75;1.30;;;;;;;;;;5030655;28;20363;-73
2022/11/16 10:49:57;;;;;;;7.60;1.25;;;;;;;;;;5030785;28;20029;-73
2022/11/16 10:52:23;;;;;;;5.10;1.35;;;;;;;;;;5014720;28;20052;-73
2022/11/16 10:54:49;;;;;;;6.38;1.58;;;;;;;;;;5030765;28;20049;-73
2022/11/16 10:57:15;;;;;;;7.30;1.30;;;;;;;;;;5012384;28;20112;-73
2022/11/16 10:59:48;;;;;;;6.15;1.42;;;;;;;;;;5030485;28;20588;-73
2022/11/16 11:02:29;;;;;;;7.95;1.63;;;;;;;;;;5030581;28;20553;-73
2022/11/16 11:05:20;;;;;;;9.40;1.35;;;;;;;;;;5030154;28;20474;-73
2022/11/16 11:07:49;;;;;;;;;;;;;;;;;;5030912;28;20032;-73
2022/11/16 11:10:26;;;;;;;12.63;1.50;;;;;;;;;;5030221;28;19913;-73
2022/11/16 11:13:19;;;;;;;9.43;1.50;;;;;;;;;;5030325;28;20108;-73
2022/11/16 11:15:46;;;;;;;8.23;1.40;;;;;;;;;;5022034;28;20049;-74
2022/11/16 11:18:22;;;;;;;10.10;1.70;;;;;;;;;;5012409;28;20033;-73
2022/11/16 11:21:06;;;;;;;5.65;1.25;;;;;;;;;;5030134;28;20120;-73
2022/11/16 11:23:51;;;;;;;7.88;1.30;;;;;;;;;;5029994;28;20029;-73
2022/11/16 11:26:28;;;;;;;6.75;1.23;;;;;;;;;;5012142;28;20390;-74
2022/11/16 11:28:55;;;;;;;5.72;1.23;;;;;;;;;;5029933;28;20481;-73
2022/11/16 11:31:32;;;;;;;6.10;1.10;;;;;;;;;;5030032;28;20029;-73
2022/11/16 11:34:26;;;;;;;8.07;1.13;;;;;;;;;;5030284;28;20168;-73
2022/11/16 11:36:59;;;;;;;5.18;1.27;;;;;;;;;;5029551;28;20045;-73
2022/11/16 11:39:27;;;;;;;8.02;1.20;;;;;;;;;;5030082;28;20037;-72
2022/11/16 11:42:11;;;;;;;5.50;1.10;;;;;;;;;;5029081;28;20033;-72
2022/11/16 11:44:48;;;;;;;6.47;1.15;;;;;;;;;;5029925;28;20108;-72
2022/11/16 11:47:19;;;;;;;6.28;1.27;;;;;;;;;;5029406;28;20474;-72
2022/11/16 11:49:51;;;;;;;6.88;1.40;;;;;;;;;;5029946;28;20026;-72
2022/11/16 11:53:01;;;;;;;5.35;1.42;;;;;;;;;;5029682;28;20033;-72
2022/11/16 11:55:27;;;;;;;4.75;1.13;;;;;;;;;;5020847;28;20065;-72
2022/11/16 11:57:54;;;;;;;5.70;1.00;;;;;;;;;;5029077;28;20108;-72
2022/11/16 12:00:20;;;;;;;5.13;1.10;;;;;;;;;;5029256;28;20053;-73
2022/11/16 12:03:11;;;;;;;8.32;1.20;;;;;;;;;;5029649;28;20040;-73
2022/11/16 12:06:01;;;;;;;6.80;1.23;;;;;;;;;;5029270;28;20049;-73
2022/11/16 12:08:38;;;;;;;5.13;1.30;;;;;;;;;;5029341;28;20033;-73
2022/11/16 12:11:29;;;;;;;8.00;1.30;;;;;;;;;;5029368;28;20029;-73
2022/11/16 12:14:13;;;;;;;7.43;1.20;;;;;;;;;;5029179;28;20099;-73
2022/11/16 12:16:53;;;;;;;7.88;1.50;;;;;;;;;;5029069;28;20028;-74
2022/11/16 12:19:33;;;;;;;4.70;1.13;;;;;;;;;;5011747;28;20028;-73
2022/11/16 12:22:13;;;;;;;5.65;1.08;;;;;;;;;;5011401;28;20390;-74
2022/11/16 12:24:55;;;;;;;7.22;1.38;;;;;;;;;;5029487;28;20477;-73
2022/11/16 12:27:46;;;;;;;4.85;1.08;;;;;;;;;;5028581;28;20021;-73
2022/11/16 12:30:13;;;;;;;4.57;1.00;;;;;;;;;;5029414;28;20025;-73
2022/11/16 12:32:44;;;;;;;5.95;1.10;;;;;;;;;;5029208;28;20040;-72
2022/11/16 12:35:31;;;;;;;7.40;1.10;;;;;;;;;;5029438;28;20486;-72
2022/11/16 12:38:14;;;;;;;5.10;0.95;;;;;;;;;;5028895;28;20037;-72
2022/11/16 12:40:51;;;;;;;5.32;1.02;;;;;;;;;;5028934;28;20021;-72
2022/11/16 12:43:29;;;;;;;8.10;1.30;;;;;;;;;;5028780;28;20104;-72
2022/11/16 12:46:05;;;;;;;5.38;1.00;;;;;;;;;;5028995;28;20413;-72
2022/11/16 12:48:51;;;;;;;3.78;1.02;;;;;;;;;;5031605;28;20357;-74
2022/11/16 12:51:42;;;;;;;5.38;1.10;;;;;;;;;;5015124;28;20029;-74
2022/11/16 12:54:32;;;;;;;4.68;0.90;;;;;;;;;;5033307;28;20029;-73
2022/11/16 12:57:06;;;;;;;;;;;;;;;;;;5032714;28;20041;-73
2022/11/16 12:59:50;;;;;;;3.33;0.80;;;;;;;;;;5032941;28;19920;-74
2022/11/16 13:02:46;;;;;;;3.10;0.80;;;;;;;;;;5032840;28;20100;-73
2022/11/16 13:05:45;;;;;;;4.40;0.93;;;;;;;;;;5032795;28;20041;-73
2022/11/16 13:08:59;;;;;;;6.25;1.30;;;;;;;;;;5032354;28;20088;-74
2022/11/16 13:11:50;;;;;;;5.82;1.30;;;;;;;;;;5025511;28;20049;-73
2022/11/16 13:14:19;;;;;;;5.00;0.85;;;;;;;;;;5021852;28;20045;-73
2022/11/16 13:16:46;;;;;;;4.18;1.00;;;;;;;;;;5032122;28;20080;-72
2022/11/16 13:19:14;;;;;;;5.28;0.85;;;;;;;;;;5032645;28;20025;-73
2022/11/16 13:22:01;;;;;;;9.02;1.00;;;;;;;;;;5032466;28;20038;-73
2022/11/16 13:24:42;;;;;;;4.07;0.90;;;;;;;;;;5032560;28;20036;-73
2022/11/16 13:27:23;;;;;;;5.95;0.88;;;;;;;;;;5031722;28;20031;-73
2022/11/16 13:29:57;;;;;;;4.95;0.98;;;;;;;;;;5032752;28;20021;-73
2022/11/16 13:32:49;;;;;;;4.65;1.08;;;;;;;;;;5032339;28;20036;-73
2022/11/16 13:35:16;;;;;;;3.40;0.93;;;;;;;;;;5032272;28;20033;-73
2022/11/16 13:37:50;;;;;;;8.60;1.02;;;;;;;;;;5032039;28;20103;-73
2022/11/16 13:40:26;;;;;;;2.72;0.70;;;;;;;;;;5032182;28;20021;-73
2022/11/16 13:43:09;;;;;;;4.65;0.90;;;;;;;;;;5031540;28;20029;-72
2022/11/16 13:45:59;;;;;;;3.15;0.68;;;;;;;;;;5032018;28;20082;-73
2022/11/16 13:48:35;;;;;;;3.47;0.90;;;;;;;;;;5031374;28;20014;-73
2022/11/16 13:51:04;;;;;;;3.95;0.63;;;;;;;;;;5032246;28;20052;-73
2022/11/16 13:53:31;;;;;;;3.60;0.68;;;;;;;;;;5031994;28;20025;-72
2022/11/16 13:56:00;;;;;;;2.70;0.70;;;;;;;;;;5031873;28;20022;-73
2022/11/16 13:58:28;;;;;;;2.28;0.57;;;;;;;;;;5030546;28;20049;-73
2022/11/16 14:01:06;;;;;;;2.60;0.70;;;;;;;;;;5031082;28;20037;-73
2022/11/16 14:03:51;;;;;;;2.53;0.65;;;;;;;;;;5031544;28;20017;-73
2022/11/16 14:06:19;;;;;;;4.13;0.77;;;;;;;;;;5031648;28;20144;-72
2022/11/16 14:09:24;;;;;;;3.55;0.70;;;;;;;;;;5031544;28;20038;-74
2022/11/16 14:11:51;;;;;;;10.43;1.00;;;;;;;;;;5030531;28;20817;-73
2022/11/16 14:14:54;;;;;;;2.65;0.65;;;;;;;;;;5031763;28;20030;-73
2022/11/16 14:17:59;;;;;;;5.82;0.90;;;;;;;;;;5013439;28;20112;-73
2022/11/16 14:20:37;;;;;;;3.70;0.90;;;;;;;;;;5027532;28;20075;-72
2022/11/16 14:23:11;;;;;;;3.25;0.80;;;;;;;;;;5013275;28;20029;-73
2022/11/16 14:25:47;;;;;;;7.38;0.70;;;;;;;;;;5031514;28;20531;-73
2022/11/16 14:28:27;;;;;;;3.35;0.90;;;;;;;;;;5030195;28;20059;-73
2022/11/16 14:31:26;;;;;;;3.42;0.80;;;;;;;;;;5031146;28;20026;-73
2022/11/16 14:33:56;;;;;;;4.50;1.00;;;;;;;;;;5004607;28;20033;-73
2022/11/16 14:36:42;;;;;;;4.18;0.70;;;;;;;;;;5031181;28;20056;-73
2022/11/16 14:39:30;;;;;;;3.60;0.70;;;;;;;;;;5030898;28;20029;-73
2022/11/16 14:42:02;;;;;;;2.67;0.80;;;;;;;;;;5030633;28;20029;-72
2022/11/16 14:44:31;;;;;;;5.00;0.75;;;;;;;;;;5031006;28;20049;-72
2022/11/16 14:46:56;;;;;;;3.90;0.70;;;;;;;;;;5031133;28;20022;-73
2022/11/16 14:49:24;;;;;;;3.03;0.50;;;;;;;;;;5030754;28;20025;-73
2022/11/16 14:51:57;;;;;;;4.50;0.80;;;;;;;;;;5030971;28;20061;-72
2022/11/16 14:54:49;;;;;;;1.80;0.50;;;;;;;;;;5030732;28;20025;-73
2022/11/16 14:57:20;;;;;;;4.15;0.88;;;;;;;;;;5030468;28;20025;-73
2022/11/16 14:59:46;;;;;;;5.47;0.90;;;;;;;;;;5030875;28;20049;-73
2022/11/16 15:02:23;;;;;;;4.13;0.80;;;;;;;;;;5012808;28;20025;-73
2022/11/16 15:04:51;;;;;;;3.80;0.75;;;;;;;;;;5030433;28;20064;-73
2022/11/16 15:07:18;;;;;;;4.00;0.85;;;;;;;;;;5012617;28;20128;-73
2022/11/16 15:09:49;;;;;;;2.88;0.80;;;;;;;;;;5030411;28;20037;-73
2022/11/16 15:12:41;;;;;;;3.53;0.95;;;;;;;;;;5029766;28;20029;-73
2022/11/16 15:15:10;;;;;;;6.15;0.90;;;;;;;;;;5030315;28;20033;-74
2022/11/16 15:17:41;;;;;;;2.28;0.70;;;;;;;;;;5029974;28;20100;-73
2022/11/16 15:20:18;;;;;;;4.72;0.80;;;;;;;;;;5030525;28;20052;-73
2022/11/16 15:22:46;;;;;;;3.22;0.70;;;;;;;;;;5030327;28;20060;-73
2022/11/16 15:25:26;;;;;;;4.50;0.85;;;;;;;;;;5030311;28;20544;-73
2022/11/16 15:27:54;;;;;;;5.65;0.80;;;;;;;;;;5029525;28;20055;-73
2022/11/16 15:30:23;;;;;;;4.20;0.70;;;;;;;;;;5030129;28;20056;-73
2022/11/16 15:32:51;;;;;;;3.50;0.93;;;;;;;;;;5029959;28;20136;-73
2022/11/16 15:35:27;;;;;;;5.93;1.00;;;;;;;;;;5030106;28;20029;-73
2022/11/16 15:37:59;;;;;;;4.70;0.65;;;;;;;;;;5011846;28;20453;-73
2022/11/16 15:40:25;;;;;;;5.85;0.80;;;;;;;;;;5030205;28;20021;-73
2022/11/16 15:42:52;;;;;;;2.20;0.68;;;;;;;;;;5011600;28;20112;-73
2022/11/16 15:45:22;;;;;;;2.90;0.80;;;;;;;;;;5029863;28;20504;-73
2022/11/16 15:47:52;;;;;;;2.45;0.73;;;;;;;;;;5029551;28;20087;-72
2022/11/16 15:50:19;;;;;;;4.05;0.80;;;;;;;;;;5029887;28;20034;-72
2022/11/16 15:52:54;;;;;;;2.22;0.70;;;;;;;;;;5029706;28;20029;-73
2022/11/16 15:55:39;;;;;;;3.78;0.88;;;;;;;;;;5011963;28;20037;-73